Time;durP1;ratioP1;P1;durP2;ratioP2;P2;SDS_P1;SDS_P2;PMS_P1;PMS_P2;Temp;Humidity;BMP_temperature;BMP_pressure;BME280_temperature;BME280_humidity;BME280_pressure;Samples;Min_cycle;Max_cycle;Signal;HPM_P1;HPM_P2
2022/01/09 00:00:16;;;;;;;22.30;12.10;;;;;;;-4.25;92.26;98387.09;103540;1301;24378;-25
2022/01/09 00:02:41;;;;;;;27.20;11.80;;;;;;;-4.30;92.92;98376.85;103524;1300;24342;-26
2022/01/09 00:05:09;;;;;;;40.90;13.40;;;;;;;-4.30;92.45;98372.64;103504;1302;24233;-30
2022/01/09 00:07:35;;;;;;;31.10;12.80;;;;;;;-4.36;92.02;98368.77;103477;1302;24205;-25
2022/01/09 00:10:01;;;;;;;26.70;10.50;;;;;;;-4.39;92.65;98364.83;103555;1302;24245;-29
2022/01/09 00:12:27;;;;;;;19.20;10.80;;;;;;;-4.42;92.20;98357.21;103503;1301;24229;-25
2022/01/09 00:14:52;;;;;;;27.20;12.10;;;;;;;-4.46;92.27;98357.36;103568;1300;24155;-29
2022/01/09 00:17:18;;;;;;;22.80;9.50;;;;;;;-4.48;92.52;98353.17;103521;1301;24296;-26
2022/01/09 00:19:44;;;;;;;29.50;10.40;;;;;;;-4.49;92.58;98348.21;103531;1302;22695;-27
2022/01/09 00:22:11;;;;;;;32.80;12.30;;;;;;;-4.53;92.37;98347.95;103480;1301;24204;-29
2022/01/09 00:24:37;;;;;;;29.20;12.10;;;;;;;-4.53;92.61;98348.34;103563;1301;24346;-25
2022/01/09 00:27:03;;;;;;;33.30;13.20;;;;;;;-4.52;92.81;98346.89;103537;1302;24173;-29
2022/01/09 00:29:29;;;;;;;22.30;10.40;;;;;;;-4.50;93.12;98347.41;103501;1302;22521;-26
2022/01/09 00:31:55;;;;;;;37.00;11.30;;;;;;;-4.44;93.23;98346.24;103641;1300;22520;-29
2022/01/09 00:34:21;;;;;;;35.90;11.00;;;;;;;-4.42;93.09;98341.87;103514;1303;24198;-25
2022/01/09 00:36:47;;;;;;;46.90;12.00;;;;;;;-4.40;93.04;98337.99;103472;1300;24174;-25
2022/01/09 00:39:13;;;;;;;24.60;10.60;;;;;;;-4.37;93.26;98330.25;103597;1300;24370;-29
2022/01/09 00:41:39;;;;;;;33.60;11.50;;;;;;;-4.30;93.71;98327.52;103434;1302;24225;-25
2022/01/09 00:44:05;;;;;;;29.60;11.90;;;;;;;-4.24;93.28;98331.56;103542;1302;24283;-28
2022/01/09 00:46:33;;;;;;;33.50;12.50;;;;;;;-4.17;93.00;98330.33;103500;1300;24423;-29
2022/01/09 00:49:01;;;;;;;46.50;15.20;;;;;;;-4.14;92.77;98328.30;103570;1300;24206;-25
2022/01/09 00:51:27;;;;;;;31.30;10.70;;;;;;;-4.09;92.79;98327.33;103551;1301;24215;-26
2022/01/09 00:53:53;;;;;;;27.00;10.90;;;;;;;-4.02;93.09;98327.45;103569;1300;24163;-28
2022/01/09 00:56:19;;;;;;;30.50;12.40;;;;;;;-3.94;92.81;98325.77;103517;1302;24322;-25
2022/01/09 00:58:45;;;;;;;21.90;8.90;;;;;;;-3.89;92.90;98324.80;103564;1302;22511;-29
2022/01/09 01:01:11;;;;;;;46.90;11.30;;;;;;;-3.81;93.20;98319.70;103602;1302;24261;-26
2022/01/09 01:03:37;;;;;;;31.80;11.40;;;;;;;-3.74;92.65;98315.45;103510;1301;24324;-26
2022/01/09 01:06:03;;;;;;;30.80;12.10;;;;;;;-3.69;92.55;98317.27;103645;1302;24320;-29
2022/01/09 01:08:29;;;;;;;26.80;10.00;;;;;;;-3.64;92.34;98315.31;103507;1302;24352;-27
2022/01/09 01:10:55;;;;;;;37.60;12.50;;;;;;;-3.57;92.41;98311.13;103559;1301;24350;-29
2022/01/09 01:13:21;;;;;;;24.50;10.10;;;;;;;-3.52;92.26;98310.86;103499;1302;24316;-26
2022/01/09 01:15:47;;;;;;;31.60;11.60;;;;;;;-3.46;91.76;98305.83;103534;1301;24843;-26
2022/01/09 01:18:13;;;;;;;25.20;10.70;;;;;;;-3.36;92.11;98297.00;103450;1301;24264;-27
2022/01/09 01:20:40;;;;;;;19.60;10.90;;;;;;;-3.33;91.90;98295.92;103583;1300;24326;-27
2022/01/09 01:23:06;;;;;;;24.00;9.10;;;;;;;-3.24;91.92;98289.91;103549;1301;24279;-26
2022/01/09 01:25:32;;;;;;;21.20;10.50;;;;;;;-3.17;92.08;98287.88;103523;1300;24321;-25
2022/01/09 01:27:58;;;;;;;27.50;9.20;;;;;;;-3.05;91.82;98282.02;103472;1301;24200;-26
2022/01/09 01:30:24;;;;;;;23.30;10.60;;;;;;;-3.00;91.29;98281.02;103536;1302;24370;-26
2022/01/09 01:32:49;;;;;;;27.30;11.70;;;;;;;-2.94;91.21;98279.77;103558;1302;24174;-28
2022/01/09 01:35:15;;;;;;;42.50;13.50;;;;;;;-2.90;91.07;98278.23;103603;1302;24253;-26
2022/01/09 01:37:42;;;;;;;27.90;11.80;;;;;;;-2.82;91.25;98271.40;103613;1302;24342;-27
2022/01/09 01:40:11;;;;;;;36.50;13.50;;;;;;;-2.82;90.76;98267.52;103533;1300;24346;-28
2022/01/09 01:42:37;;;;;;;29.10;11.40;;;;;;;-2.78;90.77;98258.45;103570;1302;22515;-30
2022/01/09 01:45:04;;;;;;;18.90;9.70;;;;;;;-2.75;91.23;98243.20;103539;1300;24226;-29
2022/01/09 01:47:29;;;;;;;19.40;8.80;;;;;;;-2.83;90.98;98237.13;103561;1301;24172;-27
2022/01/09 01:49:56;;;;;;;32.80;12.70;;;;;;;-2.91;90.63;98229.95;103535;1302;24294;-29
2022/01/09 01:52:27;;;;;;;21.00;11.40;;;;;;;-2.93;90.61;98229.67;103575;1300;24237;-26
2022/01/09 01:54:54;;;;;;;21.90;11.20;;;;;;;-2.97;90.23;98230.67;103600;1300;24276;-29
2022/01/09 01:57:20;;;;;;;34.70;12.70;;;;;;;-3.00;90.20;98228.19;103528;1302;23996;-29
2022/01/09 01:59:45;;;;;;;27.90;11.20;;;;;;;-3.08;90.05;98222.39;103595;1300;24212;-27
2022/01/09 02:02:11;;;;;;;36.00;12.00;;;;;;;-3.11;90.23;98221.14;103601;1302;24174;-29
2022/01/09 02:04:37;;;;;;;25.90;11.60;;;;;;;-3.16;90.18;98217.91;103691;1300;24191;-29
2022/01/09 02:07:04;;;;;;;29.40;13.60;;;;;;;-3.21;90.24;98212.09;103549;1302;24160;-28
2022/01/09 02:09:30;;;;;;;18.00;9.70;;;;;;;-3.30;90.18;98208.95;103511;1300;24356;-29
2022/01/09 02:11:56;;;;;;;25.60;11.70;;;;;;;-3.35;90.44;98207.01;103623;1300;24190;-30
2022/01/09 02:14:22;;;;;;;26.30;10.80;;;;;;;-3.40;90.60;98207.41;103595;1300;24294;-28
2022/01/09 02:16:49;;;;;;;21.30;9.50;;;;;;;-3.43;90.89;98204.98;103496;1300;24200;-28
2022/01/09 02:19:16;;;;;;;32.60;12.20;;;;;;;-3.51;90.77;98199.73;103493;1301;22525;-30
2022/01/09 02:21:44;;;;;;;39.00;13.80;;;;;;;-3.60;91.30;98191.41;103468;1301;24331;-28
2022/01/09 02:24:12;;;;;;;37.20;11.50;;;;;;;-3.68;91.09;98185.65;103551;1302;24305;-25
2022/01/09 02:26:38;;;;;;;29.90;11.70;;;;;;;-3.76;90.73;98182.71;103550;1300;24316;-27
2022/01/09 02:29:05;;;;;;;34.80;11.40;;;;;;;-3.88;90.72;98185.34;103561;1300;24211;-29
2022/01/09 02:31:31;;;;;;;46.20;13.40;;;;;;;-3.99;91.43;98177.70;103547;1302;24311;-25
2022/01/09 02:33:58;;;;;;;27.60;10.80;;;;;;;-4.01;91.68;98168.80;103604;1299;24212;-29
2022/01/09 02:36:24;;;;;;;31.80;12.50;;;;;;;-4.05;92.37;98171.26;103601;1300;24273;-26
2022/01/09 02:38:50;;;;;;;35.50;12.90;;;;;;;-4.09;91.78;98167.77;103606;1302;24248;-29
2022/01/09 02:41:15;;;;;;;27.90;12.90;;;;;;;-4.15;91.49;98159.21;103650;1300;24185;-25
2022/01/09 02:43:41;;;;;;;34.00;12.80;;;;;;;-4.24;91.54;98150.52;103512;1302;22511;-29
2022/01/09 02:48:39;;;;;;;30.80;12.40;;;;;;;-4.34;91.88;98142.37;103528;1301;24226;-29
2022/01/09 02:51:11;;;;;;;30.40;12.80;;;;;;;-4.42;92.30;98138.66;103564;1300;22636;-26
2022/01/09 02:53:38;;;;;;;30.40;12.60;;;;;;;-4.47;92.31;98136.08;103528;1300;25332;-25
2022/01/09 02:56:05;;;;;;;30.50;12.60;;;;;;;-4.54;92.53;98130.73;103495;1301;24188;-27
2022/01/09 02:58:32;;;;;;;26.10;11.00;;;;;;;-4.55;92.85;98125.67;103580;1300;24343;-27
2022/01/09 03:00:58;;;;;;;22.90;9.40;;;;;;;-4.58;92.70;98123.78;103540;1299;24191;-28
2022/01/09 03:03:24;;;;;;;28.80;11.90;;;;;;;-4.59;93.30;98123.23;103557;1300;24347;-31
2022/01/09 03:05:50;;;;;;;30.30;11.50;;;;;;;-4.60;93.84;98120.85;103490;1300;22638;-30
2022/01/09 03:08:16;;;;;;;29.40;10.80;;;;;;;-4.62;93.61;98125.04;103489;1301;24214;-26
2022/01/09 03:10:42;;;;;;;33.30;12.00;;;;;;;-4.62;93.55;98122.91;103533;1302;24308;-29
2022/01/09 03:13:08;;;;;;;34.00;13.40;;;;;;;-4.64;93.23;98117.91;103555;1302;24666;-26
2022/01/09 03:15:34;;;;;;;18.20;9.60;;;;;;;-4.67;93.54;98118.31;103581;1302;24218;-29
2022/01/09 03:18:00;;;;;;;30.70;13.30;;;;;;;-4.70;93.88;98119.21;103570;1302;22509;-29
2022/01/09 03:20:27;;;;;;;25.10;10.70;;;;;;;-4.74;94.06;98116.07;103496;1300;24414;-29
2022/01/09 03:22:54;;;;;;;26.10;11.40;;;;;;;-4.75;93.89;98112.69;103579;1300;24240;-29
2022/01/09 03:25:21;;;;;;;29.00;10.60;;;;;;;-4.74;93.42;98107.38;103512;1302;22881;-29
2022/01/09 03:27:49;;;;;;;22.90;9.60;;;;;;;-4.77;94.10;98107.61;103533;1300;24471;-29
2022/01/09 03:30:16;;;;;;;28.30;12.20;;;;;;;-4.76;94.11;98108.41;103518;1300;24375;-29
2022/01/09 03:32:42;;;;;;;20.60;9.20;;;;;;;-4.78;94.01;98105.08;103554;1302;24354;-29
2022/01/09 03:35:11;;;;;;;19.60;9.70;;;;;;;-4.76;93.71;98106.10;103524;1302;24369;-29
2022/01/09 03:37:36;;;;;;;37.70;13.60;;;;;;;-4.79;94.50;98099.24;103553;1302;24458;-27
2022/01/09 03:40:04;;;;;;;28.90;9.00;;;;;;;-4.80;94.82;98099.84;103562;1302;24174;-29
2022/01/09 03:42:30;;;;;;;23.30;11.30;;;;;;;-4.81;94.62;98096.30;103537;1302;22510;-29
2022/01/09 03:44:56;;;;;;;25.60;9.80;;;;;;;-4.83;94.62;98093.61;103573;1302;24157;-26
2022/01/09 03:47:22;;;;;;;24.60;10.70;;;;;;;-4.85;95.55;98097.27;103554;1301;24239;-25
2022/01/09 03:49:50;;;;;;;34.60;12.70;;;;;;;-4.82;95.82;98093.05;103628;1301;24186;-28
2022/01/09 03:52:17;;;;;;;25.60;10.30;;;;;;;-4.86;95.36;98095.98;103564;1301;22746;-29
2022/01/09 03:54:43;;;;;;;21.60;10.00;;;;;;;-4.86;95.06;98097.56;103535;1302;24185;-30
2022/01/09 03:57:08;;;;;;;20.80;10.10;;;;;;;-4.89;94.80;98099.63;103430;1302;24579;-30
2022/01/09 03:59:34;;;;;;;17.30;8.70;;;;;;;-4.90;95.34;98099.15;103470;1300;24304;-25
2022/01/09 04:02:00;;;;;;;28.70;9.80;;;;;;;-4.89;95.12;98104.64;103501;1300;24232;-27
2022/01/09 04:04:26;;;;;;;22.50;10.90;;;;;;;-4.94;95.06;98102.95;103521;1301;24316;-30
2022/01/09 04:06:52;;;;;;;31.00;12.40;;;;;;;-4.94;94.82;98103.36;103537;1300;24324;-28
2022/01/09 04:09:26;;;;;;;32.10;10.70;;;;;;;-4.99;94.77;98108.26;103002;1302;725590;-26
2022/01/09 04:11:56;;;;;;;33.20;12.40;;;;;;;-5.00;95.37;98107.32;103474;1301;24195;-28
2022/01/09 04:14:21;;;;;;;28.80;11.30;;;;;;;-5.00;95.34;98103.84;103511;1302;22552;-28
2022/01/09 04:16:47;;;;;;;29.50;11.30;;;;;;;-5.02;95.81;98101.90;103500;1302;24305;-30
2022/01/09 04:19:13;;;;;;;18.30;9.00;;;;;;;-5.05;95.87;98097.78;103560;1300;24212;-27
2022/01/09 04:21:41;;;;;;;25.20;13.70;;;;;;;-5.06;96.92;98091.61;103554;1302;24332;-30
2022/01/09 04:24:07;;;;;;;24.50;11.40;;;;;;;-5.03;97.26;98089.11;103546;1300;24286;-30
2022/01/09 04:26:33;;;;;;;21.60;9.00;;;;;;;-5.05;96.60;98086.62;103506;1300;24197;-30
2022/01/09 04:28:59;;;;;;;31.80;11.40;;;;;;;-5.07;96.24;98083.83;103581;1302;22629;-31
2022/01/09 04:31:24;;;;;;;23.00;9.50;;;;;;;-5.07;96.99;98082.10;103552;1301;24429;-28
2022/01/09 04:33:50;;;;;;;27.30;10.30;;;;;;;-5.07;96.95;98078.23;103578;1302;24258;-28
2022/01/09 04:36:16;;;;;;;26.40;8.90;;;;;;;-5.10;96.80;98076.42;103571;1302;22517;-25
2022/01/09 04:38:42;;;;;;;27.70;10.30;;;;;;;-5.11;96.57;98075.63;103531;1300;24597;-28
2022/01/09 04:41:08;;;;;;;34.60;9.80;;;;;;;-5.15;96.84;98076.46;103573;1302;24215;-29
2022/01/09 04:43:34;;;;;;;31.90;12.40;;;;;;;-5.18;97.33;98080.05;103548;1302;22517;-26
2022/01/09 04:46:00;;;;;;;31.70;12.00;;;;;;;-5.20;97.16;98076.85;103580;1302;22540;-29
2022/01/09 04:48:26;;;;;;;39.00;13.50;;;;;;;-5.20;97.05;98073.77;103584;1300;24352;-29
2022/01/09 04:50:53;;;;;;;28.30;11.00;;;;;;;-5.22;96.91;98076.51;103540;1302;24380;-28
2022/01/09 04:53:19;;;;;;;28.20;14.00;;;;;;;-5.24;96.56;98071.61;103590;1300;22695;-26
2022/01/09 04:55:48;;;;;;;40.70;14.20;;;;;;;-5.23;96.99;98074.94;103566;1299;22522;-26
2022/01/09 04:58:14;;;;;;;31.90;13.70;;;;;;;-5.24;97.13;98071.27;103607;1300;24211;-25
2022/01/09 05:00:40;;;;;;;24.00;12.40;;;;;;;-5.22;97.47;98067.99;103597;1300;22632;-27
2022/01/09 05:03:06;;;;;;;28.60;13.60;;;;;;;-5.20;97.84;98071.79;103605;1302;24275;-25
2022/01/09 05:05:33;;;;;;;27.40;11.60;;;;;;;-5.18;97.56;98070.99;103570;1302;22568;-28
2022/01/09 05:07:59;;;;;;;30.50;12.40;;;;;;;-5.19;97.60;98071.34;103623;1300;24174;-29
2022/01/09 05:10:25;;;;;;;20.90;11.30;;;;;;;-5.19;97.53;98078.18;103553;1300;22524;-26
2022/01/09 05:12:51;;;;;;;31.30;11.40;;;;;;;-5.15;97.54;98077.02;103484;1302;24283;-26
2022/01/09 05:15:19;;;;;;;33.50;13.30;;;;;;;-5.17;97.52;98073.80;103534;1301;24186;-29
2022/01/09 05:17:45;;;;;;;21.00;10.40;;;;;;;-5.18;97.95;98072.56;103564;1300;24224;-27
2022/01/09 05:20:11;;;;;;;33.90;13.50;;;;;;;-5.14;98.35;98078.20;103438;1302;24227;-29
2022/01/09 05:22:37;;;;;;;18.70;9.70;;;;;;;-5.17;97.88;98073.99;103513;1302;24291;-25
2022/01/09 05:25:06;;;;;;;26.60;10.60;;;;;;;-5.17;97.76;98074.55;103419;1304;24341;-30
2022/01/09 05:27:33;;;;;;;31.30;10.30;;;;;;;-5.22;97.85;98064.48;103553;1300;24306;-25
2022/01/09 05:29:59;;;;;;;21.90;10.50;;;;;;;-5.22;98.26;98066.29;103540;1300;24199;-29
2022/01/09 05:32:25;;;;;;;29.40;12.80;;;;;;;-5.21;98.56;98067.91;103540;1300;24286;-28
2022/01/09 05:34:51;;;;;;;34.60;14.20;;;;;;;-5.22;98.32;98068.48;103517;1300;24611;-25
2022/01/09 05:37:17;;;;;;;22.40;12.10;;;;;;;-5.22;98.00;98066.62;103530;1301;24257;-26
2022/01/09 05:39:43;;;;;;;30.60;13.40;;;;;;;-5.23;98.18;98063.73;103533;1300;24179;-29
2022/01/09 05:42:10;;;;;;;31.80;12.90;;;;;;;-5.24;98.98;98063.83;103605;1302;24249;-30
2022/01/09 05:44:36;;;;;;;25.30;8.80;;;;;;;-5.23;98.87;98059.86;103517;1300;24222;-27
2022/01/09 05:47:02;;;;;;;21.50;11.50;;;;;;;-5.24;98.83;98059.42;103527;1302;24304;-30
2022/01/09 05:49:28;;;;;;;32.60;11.90;;;;;;;-5.23;99.09;98060.55;103554;1300;22516;-25
2022/01/09 05:51:54;;;;;;;26.60;11.10;;;;;;;-5.23;99.37;98056.91;103403;1300;24234;-27
2022/01/09 05:54:20;;;;;;;19.60;10.10;;;;;;;-5.21;99.36;98061.47;103581;1300;24213;-29
2022/01/09 05:56:47;;;;;;;25.60;12.50;;;;;;;-5.20;99.88;98059.10;103555;1300;24197;-25
2022/01/09 05:59:13;;;;;;;23.50;9.70;;;;;;;-5.20;99.60;98060.98;103535;1301;24228;-25
2022/01/09 06:01:39;;;;;;;43.90;16.30;;;;;;;-5.20;99.73;98062.91;103591;1300;24632;-28
2022/01/09 06:04:05;;;;;;;29.20;12.60;;;;;;;-5.18;99.36;98061.35;103507;1300;24253;-29
2022/01/09 06:06:32;;;;;;;23.50;11.50;;;;;;;-5.17;98.87;98058.70;103543;1302;24407;-29
2022/01/09 06:08:59;;;;;;;32.50;13.40;;;;;;;-5.17;98.80;98059.19;103551;1300;22717;-25
2022/01/09 06:11:25;;;;;;;32.50;14.00;;;;;;;-5.14;99.34;98060.02;103561;1302;24356;-28
2022/01/09 06:13:51;;;;;;;31.50;12.60;;;;;;;-5.13;99.34;98061.50;103597;1300;25358;-27
2022/01/09 06:16:16;;;;;;;31.80;14.00;;;;;;;-5.14;99.37;98067.35;103550;1300;24293;-25
2022/01/09 06:18:42;;;;;;;32.00;13.50;;;;;;;-5.13;99.38;98066.95;103592;1300;24382;-30
2022/01/09 06:21:08;;;;;;;27.80;12.10;;;;;;;-5.12;99.51;98069.61;103652;1301;22499;-25
2022/01/09 06:23:34;;;;;;;31.20;13.20;;;;;;;-5.08;99.81;98067.02;103454;1300;24295;-29
2022/01/09 06:26:00;;;;;;;34.40;14.70;;;;;;;-5.02;99.87;98065.06;103511;1300;24248;-25
2022/01/09 06:28:26;;;;;;;28.70;13.10;;;;;;;-4.99;99.91;98069.17;103642;1300;24382;-28
2022/01/09 06:30:52;;;;;;;32.00;13.90;;;;;;;-4.95;99.99;98068.15;103525;1300;24331;-28
2022/01/09 06:33:18;;;;;;;29.00;13.30;;;;;;;-4.92;99.92;98064.05;103520;1302;24332;-26
2022/01/09 06:35:45;;;;;;;25.10;13.10;;;;;;;-4.87;99.60;98057.87;103595;1301;24299;-28
2022/01/09 06:38:10;;;;;;;30.50;13.80;;;;;;;-4.86;100.00;98060.42;103554;1300;24233;-28
2022/01/09 06:40:36;;;;;;;29.00;12.90;;;;;;;-4.82;100.00;98061.57;103749;1302;24294;-29
2022/01/09 06:43:03;;;;;;;30.60;14.80;;;;;;;-4.78;100.00;98057.08;103611;1300;22731;-26
2022/01/09 06:45:29;;;;;;;17.20;8.80;;;;;;;-4.74;100.00;98049.05;103583;1300;24329;-25
2022/01/09 06:47:55;;;;;;;26.20;12.60;;;;;;;-4.65;100.00;98051.46;103653;1302;24215;-28
2022/01/09 06:50:21;;;;;;;28.60;12.00;;;;;;;-4.61;100.00;98050.15;103595;1300;24351;-29
2022/01/09 06:52:47;;;;;;;27.00;12.40;;;;;;;-4.59;100.00;98049.71;103607;1299;24379;-26
2022/01/09 06:55:13;;;;;;;29.00;13.60;;;;;;;-4.55;100.00;98044.09;103592;1300;22846;-29
2022/01/09 06:57:39;;;;;;;24.20;11.10;;;;;;;-4.49;100.00;98051.58;103623;1300;24240;-26
2022/01/09 07:00:06;;;;;;;23.70;11.90;;;;;;;-4.42;100.00;98046.38;103643;1300;22570;-26
2022/01/09 07:02:32;;;;;;;25.30;12.10;;;;;;;-4.36;100.00;98043.58;103583;1302;24251;-29
2022/01/09 07:04:58;;;;;;;24.10;13.20;;;;;;;-4.34;100.00;98045.68;103616;1302;22815;-26
2022/01/09 07:07:24;;;;;;;33.00;13.50;;;;;;;-4.29;100.00;98046.10;103646;1300;24252;-28
2022/01/09 07:09:50;;;;;;;32.50;14.30;;;;;;;-4.20;100.00;98043.63;103591;1300;24192;-29
2022/01/09 07:12:19;;;;;;;27.90;12.60;;;;;;;-4.14;100.00;98046.38;103687;1300;22729;-26
2022/01/09 07:14:46;;;;;;;23.20;10.20;;;;;;;-4.07;100.00;98047.70;103582;1300;24409;-26
2022/01/09 07:17:12;;;;;;;29.60;14.80;;;;;;;-3.96;99.94;98047.25;103598;1302;24234;-25
2022/01/09 07:19:37;;;;;;;36.50;15.30;;;;;;;-3.87;99.93;98048.46;103563;1300;24184;-28
2022/01/09 07:22:04;;;;;;;40.20;16.20;;;;;;;-3.83;99.76;98046.22;103510;1302;24373;-28
2022/01/09 07:24:30;;;;;;;28.80;10.90;;;;;;;-3.76;99.66;98044.89;103562;1300;24315;-26
2022/01/09 07:26:56;;;;;;;25.50;11.80;;;;;;;-3.64;99.49;98043.56;103499;1300;24329;-25
2022/01/09 07:29:22;;;;;;;24.70;12.20;;;;;;;-3.54;99.06;98041.96;103625;1300;24334;-26
2022/01/09 07:31:51;;;;;;;21.50;10.90;;;;;;;-3.46;98.84;98046.87;103656;1302;22522;-29
2022/01/09 07:34:18;;;;;;;27.20;13.00;;;;;;;-3.34;98.42;98043.50;103587;1302;24226;-26
2022/01/09 07:36:44;;;;;;;24.50;10.90;;;;;;;-3.28;98.07;98043.39;103525;1302;24333;-25
2022/01/09 07:39:10;;;;;;;27.50;10.30;;;;;;;-3.24;97.65;98043.94;103529;1300;24226;-28
2022/01/09 07:41:36;;;;;;;27.70;12.20;;;;;;;-3.20;97.36;98042.84;103560;1300;24439;-26
2022/01/09 07:44:02;;;;;;;17.50;11.60;;;;;;;-3.18;97.15;98041.85;103503;1300;24321;-26
2022/01/09 07:46:28;;;;;;;21.60;8.60;;;;;;;-3.08;97.17;98035.92;103522;1300;24237;-29
2022/01/09 07:48:54;;;;;;;23.10;10.80;;;;;;;-2.99;97.18;98036.68;103577;1300;24219;-26
2022/01/09 07:51:20;;;;;;;25.80;11.70;;;;;;;-2.77;97.04;98037.59;103491;1300;24303;-26
2022/01/09 07:53:47;;;;;;;23.30;11.30;;;;;;;-2.65;96.10;98035.59;103537;1300;22795;-28
2022/01/09 07:56:13;;;;;;;31.00;12.40;;;;;;;-2.54;95.44;98036.61;103609;1300;24212;-31
2022/01/09 07:58:39;;;;;;;21.00;11.40;;;;;;;-2.47;94.87;98039.05;103703;1300;24293;-26
2022/01/09 08:01:05;;;;;;;32.70;14.20;;;;;;;-2.45;94.47;98033.30;103937;1300;24186;-29
2022/01/09 08:03:31;;;;;;;24.90;11.60;;;;;;;-2.43;94.18;98031.38;103751;1300;22702;-26
2022/01/09 08:05:57;;;;;;;20.30;10.10;;;;;;;-2.40;94.02;98029.83;103547;1300;24197;-29
2022/01/09 08:08:23;;;;;;;23.90;12.80;;;;;;;-2.33;93.88;98030.20;103648;1300;22859;-29
2022/01/09 08:10:48;;;;;;;24.80;12.10;;;;;;;-2.20;93.41;98024.02;103656;1300;24230;-26
2022/01/09 08:13:15;;;;;;;53.70;18.20;;;;;;;-2.08;93.15;98023.76;103782;1303;22540;-25
2022/01/09 08:15:41;;;;;;;58.30;23.00;;;;;;;-2.11;92.86;98024.92;103725;1300;24324;-31
2022/01/09 08:18:07;;;;;;;70.60;26.20;;;;;;;-2.17;92.29;98022.53;103709;1300;24196;-29
2022/01/09 08:20:33;;;;;;;114.70;38.50;;;;;;;-2.12;92.26;98016.53;103531;1302;24466;-31
2022/01/09 08:22:59;;;;;;;92.70;27.40;;;;;;;-1.99;92.15;98016.15;103515;1300;22786;-29
2022/01/09 08:25:25;;;;;;;91.30;30.50;;;;;;;-1.97;91.70;98017.58;103588;1300;24298;-27
2022/01/09 08:27:51;;;;;;;80.90;30.20;;;;;;;-1.94;91.46;98014.79;103553;1300;24261;-29
2022/01/09 08:30:18;;;;;;;43.30;18.80;;;;;;;-1.82;91.26;98011.91;103599;1300;24174;-26
2022/01/09 08:32:44;;;;;;;24.10;12.60;;;;;;;-1.78;90.83;98007.80;103612;1300;24211;-26
2022/01/09 08:35:11;;;;;;;16.60;8.90;;;;;;;-1.74;90.47;98005.52;103555;1300;24185;-26
2022/01/09 08:37:36;;;;;;;34.00;10.30;;;;;;;-1.68;90.36;98006.64;103596;1300;24211;-26
2022/01/09 08:40:03;;;;;;;24.90;9.30;;;;;;;-1.56;90.32;98005.44;103667;1300;22689;-25
2022/01/09 08:42:29;;;;;;;14.90;8.10;;;;;;;-1.51;90.23;98006.82;103596;1300;22735;-29
2022/01/09 08:44:55;;;;;;;28.20;9.00;;;;;;;-1.35;89.77;98007.65;103609;1300;24372;-27
2022/01/09 08:47:22;;;;;;;22.30;9.50;;;;;;;-1.04;89.08;98003.07;103592;1303;24344;-29
2022/01/09 08:49:49;;;;;;;18.20;8.90;;;;;;;-0.63;88.11;98001.66;103743;1302;24358;-29
2022/01/09 08:52:15;;;;;;;20.50;8.80;;;;;;;-0.20;88.02;98003.19;103684;1300;24308;-31
2022/01/09 08:54:41;;;;;;;60.80;21.10;;;;;;;0.06;85.09;98005.08;103653;1300;24198;-25
2022/01/09 08:57:07;;;;;;;49.30;19.00;;;;;;;0.28;84.16;98001.75;103537;1300;24243;-27
2022/01/09 08:59:33;;;;;;;25.20;11.00;;;;;;;0.54;83.45;98001.37;103630;1300;24348;-25
2022/01/09 09:01:59;;;;;;;87.80;33.80;;;;;;;0.76;83.13;97997.77;103700;1300;24439;-25
2022/01/09 09:04:25;;;;;;;53.80;21.30;;;;;;;0.81;81.16;97994.36;103629;1300;22652;-31
2022/01/09 09:06:52;;;;;;;25.20;13.30;;;;;;;0.95;81.48;97993.20;103557;1299;24284;-31
2022/01/09 09:09:18;;;;;;;19.10;11.90;;;;;;;1.16;80.18;97990.23;103585;1302;22767;-29
2022/01/09 09:11:43;;;;;;;39.10;16.90;;;;;;;1.30;79.70;97986.55;103601;1300;24304;-31
2022/01/09 09:14:10;;;;;;;34.60;20.00;;;;;;;1.42;79.40;97987.52;103626;1300;24213;-29
2022/01/09 09:16:35;;;;;;;34.20;16.60;;;;;;;1.50;78.38;97989.13;103666;1300;24322;-25
2022/01/09 09:19:01;;;;;;;87.80;38.60;;;;;;;1.52;77.86;97987.96;103721;1300;24303;-28
2022/01/09 09:21:27;;;;;;;403.20;176.80;;;;;;;1.61;77.63;97987.91;103667;1300;24185;-25
2022/01/09 09:23:53;;;;;;;368.90;173.80;;;;;;;1.77;76.79;97979.31;103763;1300;22517;-24
2022/01/09 09:26:21;;;;;;;343.90;170.40;;;;;;;1.91;77.29;97979.85;103768;1300;24304;-25
2022/01/09 09:28:47;;;;;;;254.90;130.10;;;;;;;2.06;76.45;97979.55;103681;1300;22724;-25
2022/01/09 09:31:13;;;;;;;155.90;83.40;;;;;;;2.01;75.11;97978.35;103495;1300;24326;-26
2022/01/09 09:33:39;;;;;;;91.80;48.50;;;;;;;1.96;74.19;97977.17;103526;1300;24266;-29
2022/01/09 09:36:05;;;;;;;78.40;43.00;;;;;;;2.10;73.62;97969.14;103580;1300;24495;-26
2022/01/09 09:38:31;;;;;;;63.80;25.10;;;;;;;2.08;71.39;97970.24;103654;1300;22639;-25
2022/01/09 09:40:57;;;;;;;103.50;37.10;;;;;;;2.00;71.33;97972.96;103598;1300;24260;-26
2022/01/09 09:43:23;;;;;;;51.50;11.80;;;;;;;2.11;73.35;97975.47;103566;1302;24343;-29
2022/01/09 09:45:51;;;;;;;44.20;14.10;;;;;;;2.08;71.90;97970.42;103527;1300;24306;-29
2022/01/09 09:48:17;;;;;;;27.50;8.90;;;;;;;2.26;73.14;97973.48;103602;1300;22518;-29
2022/01/09 09:50:43;;;;;;;46.00;8.90;;;;;;;2.30;71.71;97976.23;103623;1300;24211;-29
2022/01/09 09:53:09;;;;;;;74.80;35.10;;;;;;;2.36;70.44;97975.16;103592;1300;24198;-29
2022/01/09 09:55:35;;;;;;;23.00;11.90;;;;;;;2.49;70.89;97972.19;103623;1300;22517;-30
2022/01/09 09:58:01;;;;;;;40.90;17.60;;;;;;;2.61;69.48;97974.30;103707;1300;24224;-27
2022/01/09 10:00:27;;;;;;;48.30;11.20;;;;;;;2.72;69.60;97973.52;103532;1300;24314;-29
2022/01/09 10:02:55;;;;;;;39.30;12.10;;;;;;;2.72;68.18;97971.59;103705;1300;24330;-25
2022/01/09 10:05:23;;;;;;;28.40;10.40;;;;;;;2.81;67.55;97968.95;103674;1300;24193;-29
2022/01/09 10:07:51;;;;;;;26.80;7.10;;;;;;;2.96;68.42;97971.44;103657;1300;24164;-27
2022/01/09 10:10:18;;;;;;;83.50;28.90;;;;;;;3.11;68.88;97968.34;103740;1300;22523;-29
2022/01/09 10:12:46;;;;;;;218.10;91.10;;;;;;;3.23;67.84;97970.85;103895;1300;24404;-31
2022/01/09 10:15:17;;;;;;;457.00;228.00;;;;;;;3.53;66.01;97970.56;103596;1300;22570;-29
2022/01/09 10:17:46;;;;;;;105.20;34.30;;;;;;;3.69;66.70;97968.79;103641;1300;22577;-29
2022/01/09 10:20:13;;;;;;;81.30;20.60;;;;;;;3.62;64.61;97961.23;103604;1302;23897;-29
2022/01/09 10:22:40;;;;;;;47.10;10.90;;;;;;;3.61;64.30;97954.20;103529;1302;24235;-27
2022/01/09 10:25:13;;;;;;;61.90;17.90;;;;;;;3.94;64.15;97947.80;103631;1300;23979;-26
2022/01/09 10:27:38;;;;;;;27.70;10.60;;;;;;;3.88;63.63;97947.20;103587;1300;24342;-24
2022/01/09 10:30:05;;;;;;;17.00;7.60;;;;;;;4.06;63.46;97945.45;103599;1300;24312;-26
2022/01/09 10:32:31;;;;;;;73.00;39.00;;;;;;;4.16;62.82;97933.92;103565;1300;24332;-29
2022/01/09 10:35:04;;;;;;;194.20;94.80;;;;;;;4.14;61.32;97926.88;103512;1300;24190;-29
2022/01/09 10:37:30;;;;;;;91.80;29.80;;;;;;;4.15;59.63;97932.16;103659;1300;23939;-31
2022/01/09 10:39:58;;;;;;;47.20;10.90;;;;;;;4.11;59.94;97934.34;103694;1300;24193;-29
2022/01/09 10:42:23;;;;;;;39.30;9.70;;;;;;;4.28;60.59;97939.18;103695;1300;24341;-29
2022/01/09 10:44:49;;;;;;;29.90;10.10;;;;;;;4.51;59.21;97946.23;103563;1300;22515;-25
2022/01/09 10:47:16;;;;;;;27.80;9.20;;;;;;;4.56;59.06;97947.90;103560;1300;24217;-30
2022/01/09 10:49:42;;;;;;;55.30;17.30;;;;;;;4.78;60.30;97950.38;103597;1300;24233;-31
2022/01/09 10:52:12;;;;;;;34.00;9.60;;;;;;;4.97;59.23;97951.11;103686;1300;24278;-26
2022/01/09 10:54:40;;;;;;;46.20;15.20;;;;;;;5.14;58.43;97953.66;103570;1300;24355;-26
2022/01/09 10:57:11;;;;;;;15.40;9.20;;;;;;;5.29;58.09;97952.53;103636;1300;24243;-26
2022/01/09 10:59:36;;;;;;;32.00;13.30;;;;;;;5.53;57.57;97952.46;103459;1300;24291;-29
2022/01/09 11:02:03;;;;;;;32.80;8.90;;;;;;;5.54;55.41;97949.95;103619;1300;24288;-27
2022/01/09 11:04:29;;;;;;;13.30;7.10;;;;;;;5.41;54.76;97955.11;103577;1300;24221;-25
2022/01/09 11:06:55;;;;;;;28.80;8.20;;;;;;;5.45;54.62;97956.90;103564;1300;24151;-27
2022/01/09 11:09:22;;;;;;;16.20;6.70;;;;;;;5.59;55.05;97945.67;103551;1300;24211;-32